ePrivacy and GPDR Cookie Consent by Cookie Consent
EmailTwitter


Observations de surface / Canada / CYYZ (71624)

Régions: Québec | Canada | États-Unis | Europe | France | UK | Ailleurs
Station
Affichage
Infos & localisation pour CYYZ (71624) | Aide pour décoder les METARs

Observations prises le 2023-02-04 à 09H00 UTC à TORONTO A, ON (CYYZ)

Etat du ciel: ciel variable.

Température: -21.0 Celsius

Point de rosée: -30.0 Celsius

Humidité relative: 44%

Vents: Nord à 4 km/h ou 2 noeuds.

Pression au niveau moyen de la mer: 103.61 kilopascals.

Calage altimétrique: 103.42 kilopascals ou 30.54 pouces de mercure.

Visibilité horizontale: 15.00 milles terrestres ou 24.00 kilomètres.

Observation METAR:

CYYZ 040900Z 36002KT 15SM FEW020 SCT160 M21/M30 A3054 RMK SC2AC2 WIND EST

SLP361=